sensor_id;sensor_type;location;lat;lon;timestamp;P1;durP1;ratioP1;P2;durP2;ratioP2
18316;SDS011;9284;52.298;21.164;2023-07-24T00:00:03;9.05;;;5.70;;
18316;SDS011;9284;52.298;21.164;2023-07-24T00:02:33;9.32;;;5.90;;
18316;SDS011;9284;52.298;21.164;2023-07-24T00:05:01;8.60;;;5.57;;
18316;SDS011;9284;52.298;21.164;2023-07-24T00:07:30;8.52;;;5.97;;
18316;SDS011;9284;52.298;21.164;2023-07-24T00:09:58;6.70;;;5.28;;
18316;SDS011;9284;52.298;21.164;2023-07-24T00:12:26;8.50;;;5.00;;
18316;SDS011;9284;52.298;21.164;2023-07-24T00:14:56;8.70;;;5.85;;
18316;SDS011;9284;52.298;21.164;2023-07-24T00:17:25;11.70;;;6.00;;
18316;SDS011;9284;52.298;21.164;2023-07-24T00:19:53;9.88;;;5.78;;
18316;SDS011;9284;52.298;21.164;2023-07-24T00:22:21;7.43;;;5.55;;
18316;SDS011;9284;52.298;21.164;2023-07-24T00:24:49;7.53;;;5.18;;
18316;SDS011;9284;52.298;21.164;2023-07-24T00:27:18;9.20;;;5.57;;
18316;SDS011;9284;52.298;21.164;2023-07-24T00:29:46;9.60;;;5.68;;
18316;SDS011;9284;52.298;21.164;2023-07-24T00:32:16;8.55;;;5.40;;
18316;SDS011;9284;52.298;21.164;2023-07-24T00:34:44;7.18;;;5.38;;
18316;SDS011;9284;52.298;21.164;2023-07-24T00:37:13;7.72;;;5.40;;
18316;SDS011;9284;52.298;21.164;2023-07-24T00:39:41;6.30;;;4.97;;
18316;SDS011;9284;52.298;21.164;2023-07-24T00:42:10;7.20;;;5.18;;
18316;SDS011;9284;52.298;21.164;2023-07-24T00:44:38;7.32;;;5.38;;
18316;SDS011;9284;52.298;21.164;2023-07-24T00:47:06;8.32;;;5.70;;
18316;SDS011;9284;52.298;21.164;2023-07-24T00:49:36;8.43;;;5.50;;
18316;SDS011;9284;52.298;21.164;2023-07-24T00:52:05;9.25;;;5.40;;
18316;SDS011;9284;52.298;21.164;2023-07-24T00:54:34;8.88;;;5.38;;
18316;SDS011;9284;52.298;21.164;2023-07-24T00:57:03;6.57;;;4.90;;
18316;SDS011;9284;52.298;21.164;2023-07-24T00:59:32;7.50;;;5.30;;
18316;SDS011;9284;52.298;21.164;2023-07-24T01:02:01;7.65;;;5.13;;
18316;SDS011;9284;52.298;21.164;2023-07-24T01:04:29;9.68;;;5.18;;
18316;SDS011;9284;52.298;21.164;2023-07-24T01:06:59;8.23;;;5.65;;
18316;SDS011;9284;52.298;21.164;2023-07-24T01:09:28;6.10;;;4.80;;
18316;SDS011;9284;52.298;21.164;2023-07-24T01:11:58;7.53;;;5.50;;
18316;SDS011;9284;52.298;21.164;2023-07-24T01:14:33;12.57;;;5.35;;
18316;SDS011;9284;52.298;21.164;2023-07-24T01:17:10;7.78;;;5.07;;
18316;SDS011;9284;52.298;21.164;2023-07-24T01:19:43;7.55;;;5.25;;
18316;SDS011;9284;52.298;21.164;2023-07-24T01:22:18;7.53;;;5.30;;
18316;SDS011;9284;52.298;21.164;2023-07-24T01:24:58;9.88;;;5.05;;
18316;SDS011;9284;52.298;21.164;2023-07-24T01:27:33;6.88;;;5.15;;
18316;SDS011;9284;52.298;21.164;2023-07-24T01:30:02;7.97;;;5.03;;
18316;SDS011;9284;52.298;21.164;2023-07-24T01:32:30;8.98;;;5.63;;
18316;SDS011;9284;52.298;21.164;2023-07-24T01:34:59;8.82;;;5.60;;
18316;SDS011;9284;52.298;21.164;2023-07-24T01:37:28;8.10;;;5.10;;
18316;SDS011;9284;52.298;21.164;2023-07-24T01:39:56;7.38;;;5.15;;
18316;SDS011;9284;52.298;21.164;2023-07-24T01:42:25;7.97;;;4.93;;
18316;SDS011;9284;52.298;21.164;2023-07-24T01:44:56;8.50;;;5.43;;
18316;SDS011;9284;52.298;21.164;2023-07-24T01:47:24;6.53;;;5.05;;
18316;SDS011;9284;52.298;21.164;2023-07-24T01:49:53;6.75;;;5.00;;
18316;SDS011;9284;52.298;21.164;2023-07-24T01:52:21;8.55;;;5.30;;
18316;SDS011;9284;52.298;21.164;2023-07-24T01:54:50;7.18;;;5.05;;
18316;SDS011;9284;52.298;21.164;2023-07-24T01:57:18;7.80;;;5.20;;
18316;SDS011;9284;52.298;21.164;2023-07-24T01:59:46;8.13;;;5.10;;
18316;SDS011;9284;52.298;21.164;2023-07-24T02:02:17;9.93;;;5.30;;
18316;SDS011;9284;52.298;21.164;2023-07-24T02:04:45;7.05;;;5.13;;
18316;SDS011;9284;52.298;21.164;2023-07-24T02:07:14;7.55;;;5.38;;
18316;SDS011;9284;52.298;21.164;2023-07-24T02:09:42;8.48;;;4.78;;
18316;SDS011;9284;52.298;21.164;2023-07-24T02:12:10;7.63;;;5.00;;
18316;SDS011;9284;52.298;21.164;2023-07-24T02:14:39;7.03;;;5.20;;
18316;SDS011;9284;52.298;21.164;2023-07-24T02:17:07;6.20;;;4.57;;
18316;SDS011;9284;52.298;21.164;2023-07-24T02:19:37;10.65;;;5.20;;
18316;SDS011;9284;52.298;21.164;2023-07-24T02:22:05;7.63;;;4.72;;
18316;SDS011;9284;52.298;21.164;2023-07-24T02:24:34;8.85;;;5.35;;
18316;SDS011;9284;52.298;21.164;2023-07-24T02:27:04;8.00;;;4.70;;
18316;SDS011;9284;52.298;21.164;2023-07-24T02:29:33;7.55;;;4.88;;
18316;SDS011;9284;52.298;21.164;2023-07-24T02:32:02;11.30;;;5.47;;
18316;SDS011;9284;52.298;21.164;2023-07-24T02:34:31;7.53;;;5.43;;
18316;SDS011;9284;52.298;21.164;2023-07-24T02:37:01;7.63;;;4.40;;
18316;SDS011;9284;52.298;21.164;2023-07-24T02:39:29;8.27;;;4.43;;
18316;SDS011;9284;52.298;21.164;2023-07-24T02:41:59;7.68;;;4.78;;
18316;SDS011;9284;52.298;21.164;2023-07-24T02:44:28;7.65;;;5.28;;
18316;SDS011;9284;52.298;21.164;2023-07-24T02:46:56;7.65;;;4.47;;
18316;SDS011;9284;52.298;21.164;2023-07-24T02:49:24;8.38;;;4.70;;
18316;SDS011;9284;52.298;21.164;2023-07-24T02:51:53;10.25;;;4.60;;
18316;SDS011;9284;52.298;21.164;2023-07-24T02:54:22;8.18;;;5.30;;
18316;SDS011;9284;52.298;21.164;2023-07-24T02:56:51;10.80;;;4.80;;
18316;SDS011;9284;52.298;21.164;2023-07-24T02:59:19;6.90;;;4.35;;
18316;SDS011;9284;52.298;21.164;2023-07-24T03:01:47;6.28;;;4.18;;
18316;SDS011;9284;52.298;21.164;2023-07-24T03:04:15;6.38;;;4.03;;
18316;SDS011;9284;52.298;21.164;2023-07-24T03:06:44;6.97;;;3.90;;
18316;SDS011;9284;52.298;21.164;2023-07-24T03:09:13;6.55;;;3.45;;
18316;SDS011;9284;52.298;21.164;2023-07-24T03:11:42;6.47;;;3.30;;
18316;SDS011;9284;52.298;21.164;2023-07-24T03:14:11;4.78;;;3.42;;
18316;SDS011;9284;52.298;21.164;2023-07-24T03:16:39;5.75;;;3.42;;
18316;SDS011;9284;52.298;21.164;2023-07-24T03:19:07;4.30;;;3.25;;
18316;SDS011;9284;52.298;21.164;2023-07-24T03:21:36;5.55;;;3.05;;
18316;SDS011;9284;52.298;21.164;2023-07-24T03:24:04;6.40;;;3.17;;
18316;SDS011;9284;52.298;21.164;2023-07-24T03:26:33;4.88;;;3.00;;
18316;SDS011;9284;52.298;21.164;2023-07-24T03:29:04;5.32;;;3.13;;
18316;SDS011;9284;52.298;21.164;2023-07-24T03:31:32;4.13;;;2.88;;
18316;SDS011;9284;52.298;21.164;2023-07-24T03:34:01;3.58;;;2.60;;
18316;SDS011;9284;52.298;21.164;2023-07-24T03:36:29;8.60;;;3.15;;
18316;SDS011;9284;52.298;21.164;2023-07-24T03:38:57;6.30;;;3.13;;
18316;SDS011;9284;52.298;21.164;2023-07-24T03:41:26;6.40;;;3.20;;
18316;SDS011;9284;52.298;21.164;2023-07-24T03:43:55;6.20;;;3.38;;
18316;SDS011;9284;52.298;21.164;2023-07-24T03:46:24;4.40;;;3.03;;
18316;SDS011;9284;52.298;21.164;2023-07-24T03:48:54;6.32;;;3.30;;
18316;SDS011;9284;52.298;21.164;2023-07-24T03:51:22;5.45;;;3.38;;
18316;SDS011;9284;52.298;21.164;2023-07-24T03:53:51;10.27;;;5.22;;
18316;SDS011;9284;52.298;21.164;2023-07-24T03:56:20;6.78;;;3.33;;
18316;SDS011;9284;52.298;21.164;2023-07-24T03:58:48;4.55;;;3.25;;
18316;SDS011;9284;52.298;21.164;2023-07-24T04:01:17;4.30;;;2.90;;
18316;SDS011;9284;52.298;21.164;2023-07-24T04:03:47;4.97;;;3.10;;
18316;SDS011;9284;52.298;21.164;2023-07-24T04:06:15;4.68;;;2.92;;
18316;SDS011;9284;52.298;21.164;2023-07-24T04:08:44;13.38;;;3.95;;
18316;SDS011;9284;52.298;21.164;2023-07-24T04:11:14;4.80;;;3.30;;
18316;SDS011;9284;52.298;21.164;2023-07-24T04:13:42;8.73;;;3.70;;
18316;SDS011;9284;52.298;21.164;2023-07-24T04:16:10;7.90;;;3.50;;
18316;SDS011;9284;52.298;21.164;2023-07-24T04:18:39;6.38;;;3.00;;
18316;SDS011;9284;52.298;21.164;2023-07-24T04:21:09;7.85;;;3.38;;
18316;SDS011;9284;52.298;21.164;2023-07-24T04:23:37;5.53;;;3.08;;
18316;SDS011;9284;52.298;21.164;2023-07-24T04:26:10;6.15;;;3.00;;
18316;SDS011;9284;52.298;21.164;2023-07-24T04:28:39;3.92;;;2.67;;
18316;SDS011;9284;52.298;21.164;2023-07-24T04:31:08;5.15;;;2.75;;
18316;SDS011;9284;52.298;21.164;2023-07-24T04:33:36;7.38;;;3.28;;
18316;SDS011;9284;52.298;21.164;2023-07-24T04:36:04;4.05;;;2.50;;
18316;SDS011;9284;52.298;21.164;2023-07-24T04:38:35;3.72;;;2.45;;
18316;SDS011;9284;52.298;21.164;2023-07-24T04:41:06;5.18;;;2.88;;
18316;SDS011;9284;52.298;21.164;2023-07-24T04:43:35;4.30;;;3.10;;
18316;SDS011;9284;52.298;21.164;2023-07-24T04:46:03;5.95;;;3.05;;
18316;SDS011;9284;52.298;21.164;2023-07-24T04:48:31;8.25;;;2.67;;
18316;SDS011;9284;52.298;21.164;2023-07-24T04:50:59;3.50;;;2.72;;
18316;SDS011;9284;52.298;21.164;2023-07-24T04:53:28;7.18;;;2.80;;
18316;SDS011;9284;52.298;21.164;2023-07-24T04:55:58;4.50;;;2.65;;
18316;SDS011;9284;52.298;21.164;2023-07-24T04:58:26;5.30;;;3.00;;
18316;SDS011;9284;52.298;21.164;2023-07-24T05:00:55;3.97;;;2.80;;
18316;SDS011;9284;52.298;21.164;2023-07-24T05:03:23;5.05;;;2.58;;
18316;SDS011;9284;52.298;21.164;2023-07-24T05:05:53;4.15;;;2.72;;
18316;SDS011;9284;52.298;21.164;2023-07-24T05:08:22;5.25;;;2.97;;
18316;SDS011;9284;52.298;21.164;2023-07-24T05:10:54;6.55;;;2.60;;
18316;SDS011;9284;52.298;21.164;2023-07-24T05:13:24;4.50;;;2.75;;
18316;SDS011;9284;52.298;21.164;2023-07-24T05:15:52;5.50;;;2.55;;
18316;SDS011;9284;52.298;21.164;2023-07-24T05:18:21;3.80;;;2.58;;
18316;SDS011;9284;52.298;21.164;2023-07-24T05:20:49;6.72;;;3.25;;
18316;SDS011;9284;52.298;21.164;2023-07-24T05:23:18;5.20;;;3.03;;
18316;SDS011;9284;52.298;21.164;2023-07-24T05:25:47;3.97;;;2.83;;
18316;SDS011;9284;52.298;21.164;2023-07-24T05:28:15;4.57;;;2.75;;
18316;SDS011;9284;52.298;21.164;2023-07-24T05:30:44;9.32;;;2.83;;
18316;SDS011;9284;52.298;21.164;2023-07-24T05:33:13;7.40;;;2.72;;
18316;SDS011;9284;52.298;21.164;2023-07-24T05:35:41;6.60;;;2.58;;
18316;SDS011;9284;52.298;21.164;2023-07-24T05:38:10;8.77;;;3.05;;
18316;SDS011;9284;52.298;21.164;2023-07-24T05:40:38;4.65;;;2.65;;
18316;SDS011;9284;52.298;21.164;2023-07-24T05:43:06;5.82;;;2.90;;
18316;SDS011;9284;52.298;21.164;2023-07-24T05:45:35;4.65;;;2.80;;
18316;SDS011;9284;52.298;21.164;2023-07-24T05:48:05;7.35;;;2.40;;
18316;SDS011;9284;52.298;21.164;2023-07-24T05:50:33;5.47;;;2.75;;
18316;SDS011;9284;52.298;21.164;2023-07-24T05:53:01;3.13;;;2.60;;
18316;SDS011;9284;52.298;21.164;2023-07-24T05:55:30;3.70;;;2.65;;
18316;SDS011;9284;52.298;21.164;2023-07-24T05:57:58;5.38;;;2.75;;
18316;SDS011;9284;52.298;21.164;2023-07-24T06:00:26;6.85;;;3.22;;
18316;SDS011;9284;52.298;21.164;2023-07-24T06:02:55;5.00;;;2.33;;
18316;SDS011;9284;52.298;21.164;2023-07-24T06:05:25;4.88;;;2.63;;
18316;SDS011;9284;52.298;21.164;2023-07-24T06:07:54;8.65;;;2.97;;
18316;SDS011;9284;52.298;21.164;2023-07-24T06:10:22;6.07;;;2.92;;
18316;SDS011;9284;52.298;21.164;2023-07-24T06:12:50;4.32;;;2.70;;
18316;SDS011;9284;52.298;21.164;2023-07-24T06:15:19;6.28;;;2.40;;
18316;SDS011;9284;52.298;21.164;2023-07-24T06:17:47;5.57;;;2.90;;
18316;SDS011;9284;52.298;21.164;2023-07-24T06:20:19;5.70;;;2.85;;
18316;SDS011;9284;52.298;21.164;2023-07-24T06:22:49;4.10;;;2.78;;
18316;SDS011;9284;52.298;21.164;2023-07-24T06:25:18;5.20;;;2.95;;
18316;SDS011;9284;52.298;21.164;2023-07-24T06:27:46;6.88;;;2.95;;
18316;SDS011;9284;52.298;21.164;2023-07-24T06:30:14;6.50;;;2.70;;
18316;SDS011;9284;52.298;21.164;2023-07-24T06:32:43;5.15;;;2.75;;
18316;SDS011;9284;52.298;21.164;2023-07-24T06:35:11;4.82;;;2.85;;
18316;SDS011;9284;52.298;21.164;2023-07-24T06:37:39;6.47;;;2.90;;
18316;SDS011;9284;52.298;21.164;2023-07-24T06:40:10;5.68;;;2.83;;
18316;SDS011;9284;52.298;21.164;2023-07-24T06:42:38;4.68;;;2.53;;
18316;SDS011;9284;52.298;21.164;2023-07-24T06:45:07;5.63;;;3.00;;
18316;SDS011;9284;52.298;21.164;2023-07-24T06:47:36;6.30;;;2.78;;
18316;SDS011;9284;52.298;21.164;2023-07-24T06:50:05;4.35;;;2.67;;
18316;SDS011;9284;52.298;21.164;2023-07-24T06:52:34;5.13;;;2.65;;
18316;SDS011;9284;52.298;21.164;2023-07-24T06:55:03;5.07;;;3.13;;
18316;SDS011;9284;52.298;21.164;2023-07-24T06:57:33;6.88;;;2.85;;
18316;SDS011;9284;52.298;21.164;2023-07-24T07:00:02;4.10;;;2.65;;
18316;SDS011;9284;52.298;21.164;2023-07-24T07:02:31;6.50;;;3.10;;
18316;SDS011;9284;52.298;21.164;2023-07-24T07:05:02;7.18;;;3.13;;
18316;SDS011;9284;52.298;21.164;2023-07-24T07:07:31;6.18;;;2.47;;
18316;SDS011;9284;52.298;21.164;2023-07-24T07:10:00;4.85;;;2.95;;
18316;SDS011;9284;52.298;21.164;2023-07-24T07:12:28;5.85;;;2.85;;
18316;SDS011;9284;52.298;21.164;2023-07-24T07:14:58;4.78;;;2.95;;
18316;SDS011;9284;52.298;21.164;2023-07-24T07:17:26;7.97;;;2.97;;
18316;SDS011;9284;52.298;21.164;2023-07-24T07:19:55;7.03;;;2.85;;
18316;SDS011;9284;52.298;21.164;2023-07-24T07:22:24;6.60;;;2.72;;
18316;SDS011;9284;52.298;21.164;2023-07-24T07:24:52;4.47;;;2.90;;
18316;SDS011;9284;52.298;21.164;2023-07-24T07:27:20;5.97;;;3.10;;
18316;SDS011;9284;52.298;21.164;2023-07-24T07:29:49;6.50;;;3.00;;
18316;SDS011;9284;52.298;21.164;2023-07-24T07:32:18;4.22;;;3.00;;
18316;SDS011;9284;52.298;21.164;2023-07-24T07:34:47;7.15;;;2.80;;
18316;SDS011;9284;52.298;21.164;2023-07-24T07:37:15;4.90;;;3.17;;
18316;SDS011;9284;52.298;21.164;2023-07-24T07:39:43;7.30;;;2.92;;
18316;SDS011;9284;52.298;21.164;2023-07-24T07:42:12;5.05;;;2.92;;
18316;SDS011;9284;52.298;21.164;2023-07-24T07:44:44;7.68;;;2.97;;
18316;SDS011;9284;52.298;21.164;2023-07-24T07:47:13;4.60;;;3.13;;
18316;SDS011;9284;52.298;21.164;2023-07-24T07:49:42;5.10;;;2.95;;
18316;SDS011;9284;52.298;21.164;2023-07-24T07:52:11;6.18;;;3.08;;
18316;SDS011;9284;52.298;21.164;2023-07-24T07:54:41;6.38;;;2.95;;
18316;SDS011;9284;52.298;21.164;2023-07-24T07:57:13;4.35;;;3.00;;
18316;SDS011;9284;52.298;21.164;2023-07-24T07:59:41;4.72;;;3.20;;
18316;SDS011;9284;52.298;21.164;2023-07-24T08:02:10;4.63;;;3.13;;
18316;SDS011;9284;52.298;21.164;2023-07-24T08:04:38;6.47;;;3.13;;
18316;SDS011;9284;52.298;21.164;2023-07-24T08:07:08;4.60;;;2.72;;
18316;SDS011;9284;52.298;21.164;2023-07-24T08:09:36;6.45;;;3.08;;
18316;SDS011;9284;52.298;21.164;2023-07-24T08:12:05;4.88;;;2.88;;
18316;SDS011;9284;52.298;21.164;2023-07-24T08:14:34;6.38;;;2.88;;
18316;SDS011;9284;52.298;21.164;2023-07-24T08:17:03;5.22;;;2.58;;
18316;SDS011;9284;52.298;21.164;2023-07-24T08:19:32;4.72;;;3.03;;
18316;SDS011;9284;52.298;21.164;2023-07-24T08:22:00;4.55;;;2.95;;
18316;SDS011;9284;52.298;21.164;2023-07-24T08:24:33;11.23;;;2.97;;
18316;SDS011;9284;52.298;21.164;2023-07-24T08:27:02;4.38;;;3.03;;
18316;SDS011;9284;52.298;21.164;2023-07-24T08:29:30;6.75;;;3.03;;
18316;SDS011;9284;52.298;21.164;2023-07-24T08:31:59;5.25;;;2.45;;
18316;SDS011;9284;52.298;21.164;2023-07-24T08:34:28;5.25;;;2.72;;
18316;SDS011;9284;52.298;21.164;2023-07-24T08:36:56;6.85;;;3.15;;
18316;SDS011;9284;52.298;21.164;2023-07-24T08:39:25;4.15;;;2.88;;
18316;SDS011;9284;52.298;21.164;2023-07-24T08:41:55;4.22;;;2.97;;
18316;SDS011;9284;52.298;21.164;2023-07-24T08:44:24;3.92;;;2.90;;
18316;SDS011;9284;52.298;21.164;2023-07-24T08:46:57;4.30;;;3.17;;
18316;SDS011;9284;52.298;21.164;2023-07-24T08:49:28;5.18;;;2.80;;
18316;SDS011;9284;52.298;21.164;2023-07-24T08:51:57;5.43;;;2.90;;
18316;SDS011;9284;52.298;21.164;2023-07-24T08:54:27;8.20;;;2.78;;
18316;SDS011;9284;52.298;21.164;2023-07-24T08:56:59;3.33;;;2.67;;
18316;SDS011;9284;52.298;21.164;2023-07-24T08:59:28;8.70;;;3.47;;
18316;SDS011;9284;52.298;21.164;2023-07-24T09:01:57;5.65;;;2.83;;
18316;SDS011;9284;52.298;21.164;2023-07-24T09:04:25;3.92;;;2.78;;
18316;SDS011;9284;52.298;21.164;2023-07-24T09:06:54;4.07;;;2.90;;
18316;SDS011;9284;52.298;21.164;2023-07-24T09:09:28;3.45;;;3.00;;
18316;SDS011;9284;52.298;21.164;2023-07-24T09:11:59;4.63;;;3.20;;
18316;SDS011;9284;52.298;21.164;2023-07-24T09:14:28;6.47;;;3.28;;
18316;SDS011;9284;52.298;21.164;2023-07-24T09:17:01;6.22;;;3.20;;
18316;SDS011;9284;52.298;21.164;2023-07-24T09:19:31;3.78;;;2.90;;
18316;SDS011;9284;52.298;21.164;2023-07-24T09:22:09;7.13;;;2.95;;
18316;SDS011;9284;52.298;21.164;2023-07-24T09:24:48;4.03;;;2.90;;
18316;SDS011;9284;52.298;21.164;2023-07-24T09:27:19;5.80;;;3.45;;
18316;SDS011;9284;52.298;21.164;2023-07-24T09:29:48;4.78;;;3.50;;
18316;SDS011;9284;52.298;21.164;2023-07-24T09:32:20;4.68;;;3.20;;
18316;SDS011;9284;52.298;21.164;2023-07-24T09:34:49;5.20;;;3.35;;
18316;SDS011;9284;52.298;21.164;2023-07-24T09:37:24;6.93;;;3.63;;
18316;SDS011;9284;52.298;21.164;2023-07-24T09:39:53;4.88;;;3.30;;
18316;SDS011;9284;52.298;21.164;2023-07-24T09:42:30;6.03;;;3.40;;
18316;SDS011;9284;52.298;21.164;2023-07-24T09:45:00;6.65;;;3.33;;
18316;SDS011;9284;52.298;21.164;2023-07-24T09:47:34;6.57;;;3.70;;
18316;SDS011;9284;52.298;21.164;2023-07-24T09:50:21;6.50;;;3.53;;
18316;SDS011;9284;52.298;21.164;2023-07-24T09:52:50;10.90;;;4.20;;
18316;SDS011;9284;52.298;21.164;2023-07-24T09:55:21;8.65;;;4.00;;
18316;SDS011;9284;52.298;21.164;2023-07-24T09:57:58;4.90;;;3.75;;
18316;SDS011;9284;52.298;21.164;2023-07-24T10:00:28;6.00;;;3.65;;
18316;SDS011;9284;52.298;21.164;2023-07-24T10:02:58;5.28;;;3.35;;
18316;SDS011;9284;52.298;21.164;2023-07-24T10:05:27;6.53;;;3.55;;
18316;SDS011;9284;52.298;21.164;2023-07-24T10:07:57;6.53;;;3.47;;
18316;SDS011;9284;52.298;21.164;2023-07-24T10:10:26;5.63;;;3.75;;
18316;SDS011;9284;52.298;21.164;2023-07-24T10:12:58;5.20;;;3.20;;
18316;SDS011;9284;52.298;21.164;2023-07-24T10:15:26;4.22;;;2.95;;
18316;SDS011;9284;52.298;21.164;2023-07-24T10:18:01;4.80;;;3.40;;
18316;SDS011;9284;52.298;21.164;2023-07-24T10:20:34;5.20;;;3.25;;
18316;SDS011;9284;52.298;21.164;2023-07-24T10:23:03;4.18;;;3.20;;
18316;SDS011;9284;52.298;21.164;2023-07-24T10:25:34;6.75;;;3.22;;
18316;SDS011;9284;52.298;21.164;2023-07-24T10:28:06;7.95;;;3.53;;
18316;SDS011;9284;52.298;21.164;2023-07-24T10:30:37;4.70;;;3.13;;
18316;SDS011;9284;52.298;21.164;2023-07-24T10:33:07;6.07;;;3.33;;
18316;SDS011;9284;52.298;21.164;2023-07-24T10:35:41;6.30;;;3.53;;
18316;SDS011;9284;52.298;21.164;2023-07-24T10:38:12;8.45;;;3.50;;
18316;SDS011;9284;52.298;21.164;2023-07-24T10:40:43;4.45;;;3.20;;
18316;SDS011;9284;52.298;21.164;2023-07-24T10:43:18;4.63;;;3.00;;
18316;SDS011;9284;52.298;21.164;2023-07-24T10:45:48;3.63;;;2.80;;
18316;SDS011;9284;52.298;21.164;2023-07-24T10:48:18;4.97;;;3.35;;
18316;SDS011;9284;52.298;21.164;2023-07-24T10:50:48;6.47;;;3.85;;
18316;SDS011;9284;52.298;21.164;2023-07-24T10:53:20;3.35;;;2.58;;
18316;SDS011;9284;52.298;21.164;2023-07-24T10:55:50;11.15;;;3.20;;
18316;SDS011;9284;52.298;21.164;2023-07-24T10:58:20;6.85;;;3.22;;
18316;SDS011;9284;52.298;21.164;2023-07-24T11:00:52;5.38;;;2.95;;
18316;SDS011;9284;52.298;21.164;2023-07-24T11:03:22;7.15;;;3.50;;
18316;SDS011;9284;52.298;21.164;2023-07-24T11:05:52;6.88;;;4.18;;
18316;SDS011;9284;52.298;21.164;2023-07-24T11:08:21;6.05;;;3.20;;
18316;SDS011;9284;52.298;21.164;2023-07-24T11:10:50;5.07;;;3.13;;
18316;SDS011;9284;52.298;21.164;2023-07-24T11:13:22;4.70;;;2.72;;
18316;SDS011;9284;52.298;21.164;2023-07-24T11:15:51;6.10;;;2.97;;
18316;SDS011;9284;52.298;21.164;2023-07-24T11:18:21;6.03;;;3.22;;
18316;SDS011;9284;52.298;21.164;2023-07-24T11:21:11;4.55;;;3.10;;
18316;SDS011;9284;52.298;21.164;2023-07-24T11:23:44;5.93;;;3.25;;
18316;SDS011;9284;52.298;21.164;2023-07-24T11:26:13;6.85;;;3.70;;
18316;SDS011;9284;52.298;21.164;2023-07-24T11:28:43;7.28;;;4.07;;
18316;SDS011;9284;52.298;21.164;2023-07-24T11:31:12;6.88;;;3.70;;
18316;SDS011;9284;52.298;21.164;2023-07-24T11:33:41;7.20;;;3.35;;
18316;SDS011;9284;52.298;21.164;2023-07-24T11:36:11;4.97;;;3.35;;
18316;SDS011;9284;52.298;21.164;2023-07-24T11:38:40;7.10;;;3.58;;
18316;SDS011;9284;52.298;21.164;2023-07-24T11:41:08;4.25;;;3.42;;
18316;SDS011;9284;52.298;21.164;2023-07-24T11:43:44;4.05;;;3.55;;
18316;SDS011;9284;52.298;21.164;2023-07-24T11:46:22;5.18;;;3.45;;
18316;SDS011;9284;52.298;21.164;2023-07-24T11:48:52;4.75;;;3.30;;
18316;SDS011;9284;52.298;21.164;2023-07-24T11:51:24;8.07;;;3.80;;
18316;SDS011;9284;52.298;21.164;2023-07-24T11:54:05;6.63;;;3.63;;
18316;SDS011;9284;52.298;21.164;2023-07-24T11:56:35;4.57;;;3.50;;
18316;SDS011;9284;52.298;21.164;2023-07-24T11:59:11;5.03;;;3.85;;
18316;SDS011;9284;52.298;21.164;2023-07-24T12:01:40;6.50;;;3.67;;
18316;SDS011;9284;52.298;21.164;2023-07-24T12:04:09;5.50;;;3.92;;
18316;SDS011;9284;52.298;21.164;2023-07-24T12:06:38;4.57;;;3.67;;
18316;SDS011;9284;52.298;21.164;2023-07-24T12:09:06;6.95;;;3.80;;
18316;SDS011;9284;52.298;21.164;2023-07-24T12:11:38;4.85;;;4.05;;
18316;SDS011;9284;52.298;21.164;2023-07-24T12:14:13;3.72;;;3.33;;
18316;SDS011;9284;52.298;21.164;2023-07-24T12:16:41;5.07;;;3.47;;
18316;SDS011;9284;52.298;21.164;2023-07-24T12:19:10;5.20;;;3.20;;
18316;SDS011;9284;52.298;21.164;2023-07-24T12:21:38;11.05;;;3.58;;
18316;SDS011;9284;52.298;21.164;2023-07-24T12:24:07;6.35;;;3.13;;
18316;SDS011;9284;52.298;21.164;2023-07-24T12:26:35;7.25;;;3.50;;
18316;SDS011;9284;52.298;21.164;2023-07-24T12:29:03;3.90;;;3.22;;
18316;SDS011;9284;52.298;21.164;2023-07-24T12:31:33;5.13;;;3.53;;
18316;SDS011;9284;52.298;21.164;2023-07-24T12:34:02;8.98;;;3.53;;
18316;SDS011;9284;52.298;21.164;2023-07-24T12:36:31;6.38;;;3.72;;
18316;SDS011;9284;52.298;21.164;2023-07-24T12:38:59;8.60;;;3.40;;
18316;SDS011;9284;52.298;21.164;2023-07-24T12:41:27;5.38;;;3.88;;
18316;SDS011;9284;52.298;21.164;2023-07-24T12:43:56;6.95;;;3.63;;
18316;SDS011;9284;52.298;21.164;2023-07-24T12:46:26;4.40;;;3.40;;
18316;SDS011;9284;52.298;21.164;2023-07-24T12:48:56;8.15;;;3.70;;
18316;SDS011;9284;52.298;21.164;2023-07-24T12:51:24;4.40;;;3.67;;
18316;SDS011;9284;52.298;21.164;2023-07-24T12:53:53;5.80;;;3.35;;
18316;SDS011;9284;52.298;21.164;2023-07-24T12:56:32;7.05;;;3.47;;
18316;SDS011;9284;52.298;21.164;2023-07-24T12:59:01;4.95;;;3.50;;
18316;SDS011;9284;52.298;21.164;2023-07-24T13:01:29;4.85;;;3.53;;
18316;SDS011;9284;52.298;21.164;2023-07-24T13:04:00;4.63;;;3.25;;
18316;SDS011;9284;52.298;21.164;2023-07-24T13:06:28;4.50;;;3.03;;
18316;SDS011;9284;52.298;21.164;2023-07-24T13:08:57;4.18;;;3.28;;
18316;SDS011;9284;52.298;21.164;2023-07-24T13:11:25;4.78;;;3.40;;
18316;SDS011;9284;52.298;21.164;2023-07-24T13:13:55;6.10;;;3.60;;
18316;SDS011;9284;52.298;21.164;2023-07-24T13:16:24;4.85;;;3.25;;
18316;SDS011;9284;52.298;21.164;2023-07-24T13:18:52;5.50;;;3.35;;
18316;SDS011;9284;52.298;21.164;2023-07-24T13:21:22;7.40;;;3.38;;
18316;SDS011;9284;52.298;21.164;2023-07-24T13:23:50;5.00;;;3.58;;
18316;SDS011;9284;52.298;21.164;2023-07-24T13:26:19;5.60;;;3.33;;
18316;SDS011;9284;52.298;21.164;2023-07-24T13:28:47;4.25;;;3.50;;
18316;SDS011;9284;52.298;21.164;2023-07-24T13:31:16;7.03;;;3.70;;
18316;SDS011;9284;52.298;21.164;2023-07-24T13:33:45;5.75;;;3.78;;
18316;SDS011;9284;52.298;21.164;2023-07-24T13:36:14;6.13;;;3.53;;
18316;SDS011;9284;52.298;21.164;2023-07-24T13:38:44;4.47;;;3.50;;
18316;SDS011;9284;52.298;21.164;2023-07-24T13:41:12;4.50;;;3.28;;
18316;SDS011;9284;52.298;21.164;2023-07-24T13:43:40;7.80;;;4.15;;
18316;SDS011;9284;52.298;21.164;2023-07-24T13:46:09;6.22;;;3.30;;
18316;SDS011;9284;52.298;21.164;2023-07-24T13:48:37;7.32;;;3.55;;
18316;SDS011;9284;52.298;21.164;2023-07-24T13:51:05;5.65;;;3.67;;
18316;SDS011;9284;52.298;21.164;2023-07-24T13:53:34;5.28;;;3.60;;
18316;SDS011;9284;52.298;21.164;2023-07-24T13:56:04;8.18;;;4.30;;
18316;SDS011;9284;52.298;21.164;2023-07-24T13:58:33;6.75;;;4.00;;
18316;SDS011;9284;52.298;21.164;2023-07-24T14:01:01;9.18;;;3.65;;
18316;SDS011;9284;52.298;21.164;2023-07-24T14:03:29;5.97;;;3.75;;
18316;SDS011;9284;52.298;21.164;2023-07-24T14:05:58;7.57;;;3.85;;
18316;SDS011;9284;52.298;21.164;2023-07-24T14:08:26;9.68;;;3.80;;
18316;SDS011;9284;52.298;21.164;2023-07-24T14:10:55;4.55;;;3.60;;
18316;SDS011;9284;52.298;21.164;2023-07-24T14:13:24;4.18;;;3.58;;
18316;SDS011;9284;52.298;21.164;2023-07-24T14:15:53;4.45;;;3.50;;
18316;SDS011;9284;52.298;21.164;2023-07-24T14:18:21;7.30;;;3.95;;
18316;SDS011;9284;52.298;21.164;2023-07-24T14:20:50;5.25;;;4.00;;
18316;SDS011;9284;52.298;21.164;2023-07-24T14:23:21;5.25;;;3.78;;
18316;SDS011;9284;52.298;21.164;2023-07-24T14:25:49;8.40;;;4.43;;
18316;SDS011;9284;52.298;21.164;2023-07-24T14:28:20;6.50;;;3.63;;
18316;SDS011;9284;52.298;21.164;2023-07-24T14:30:50;7.00;;;3.63;;
18316;SDS011;9284;52.298;21.164;2023-07-24T14:33:19;7.15;;;3.90;;
18316;SDS011;9284;52.298;21.164;2023-07-24T14:35:48;6.18;;;3.90;;
18316;SDS011;9284;52.298;21.164;2023-07-24T14:38:17;7.57;;;3.70;;
18316;SDS011;9284;52.298;21.164;2023-07-24T14:40:45;7.05;;;3.75;;
18316;SDS011;9284;52.298;21.164;2023-07-24T14:43:14;4.97;;;3.50;;
18316;SDS011;9284;52.298;21.164;2023-07-24T14:45:42;5.45;;;3.47;;
18316;SDS011;9284;52.298;21.164;2023-07-24T14:48:12;5.40;;;3.63;;
18316;SDS011;9284;52.298;21.164;2023-07-24T14:50:43;8.90;;;3.78;;
18316;SDS011;9284;52.298;21.164;2023-07-24T14:53:11;4.22;;;3.40;;
18316;SDS011;9284;52.298;21.164;2023-07-24T14:55:39;5.88;;;3.25;;
18316;SDS011;9284;52.298;21.164;2023-07-24T14:58:08;3.75;;;2.95;;
18316;SDS011;9284;52.298;21.164;2023-07-24T15:00:36;4.82;;;3.55;;